Time;durP1;ratioP1;P1;durP2;ratioP2;P2;SDS_P1;SDS_P2;PMS_P1;PMS_P2;Temp;Humidity;BMP_temperature;BMP_pressure;BME280_temperature;BME280_humidity;BME280_pressure;Samples;Min_cycle;Max_cycle;Signal;HPM_P1;HPM_P2
2021/03/12 00:01:21;;;;;;;8.13;2.07;;;8.00;87.40;;;;;;4991861;28;20099;-83
2021/03/12 00:03:46;;;;;;;8.53;1.40;;;7.90;88.00;;;;;;4991947;28;20057;-82
2021/03/12 00:06:12;;;;;;;5.03;1.40;;;7.90;88.40;;;;;;4991423;28;20061;-83
2021/03/12 00:08:40;;;;;;;7.30;1.67;;;7.90;88.20;;;;;;4991459;28;20042;-82
2021/03/12 00:11:08;;;;;;;5.07;1.60;;;7.90;88.30;;;;;;4991215;28;20084;-84
2021/03/12 00:13:34;;;;;;;5.77;1.53;;;7.90;88.50;;;;;;4991311;28;20027;-83
2021/03/12 00:16:01;;;;;;;7.43;1.70;;;7.80;88.70;;;;;;4992036;28;20027;-81
2021/03/12 00:18:32;;;;;;;7.90;1.60;;;7.80;88.40;;;;;;4991681;28;20018;-81
2021/03/12 00:20:58;;;;;;;9.80;1.90;;;7.80;88.20;;;;;;4992420;28;20463;-81
2021/03/12 00:23:24;;;;;;;10.63;2.23;;;7.80;88.30;;;;;;4992287;28;20092;-81
2021/03/12 00:25:50;;;;;;;11.17;2.17;;;7.80;88.20;;;;;;4991191;28;20454;-82
2021/03/12 00:28:17;;;;;;;8.27;2.60;;;7.90;88.00;;;;;;4988890;28;20053;-83
2021/03/12 00:30:45;;;;;;;11.23;1.97;;;7.80;88.20;;;;;;4990361;28;20023;-82
2021/03/12 00:33:12;;;;;;;7.47;2.00;;;7.90;88.00;;;;;;4993910;28;20023;-83
2021/03/12 00:35:40;;;;;;;10.53;2.40;;;7.80;88.10;;;;;;4995160;28;20030;-82
2021/03/12 00:38:06;;;;;;;6.47;1.77;;;7.80;88.00;;;;;;4994506;28;20805;-82
2021/03/12 00:40:43;;;;;;;7.37;2.00;;;7.80;88.70;;;;;;4993942;28;20046;-83
2021/03/12 00:43:08;;;;;;;8.80;1.87;;;7.80;88.30;;;;;;4995304;28;20658;-82
2021/03/12 00:45:36;;;;;;;7.30;1.80;;;7.90;87.80;;;;;;4995548;28;20098;-83
2021/03/12 00:48:02;;;;;;;10.77;2.47;;;7.90;88.40;;;;;;4993855;28;20035;-82
2021/03/12 00:50:32;;;;;;;9.47;2.00;;;7.90;87.90;;;;;;4994783;28;20034;-83
2021/03/12 00:52:58;;;;;;;;;;;7.90;87.90;;;;;;4994954;28;20524;-83
2021/03/12 00:55:23;;;;;;;7.80;1.77;;;7.90;88.10;;;;;;4993795;28;19974;-83
2021/03/12 00:57:49;;;;;;;9.60;2.20;;;7.90;87.70;;;;;;4995475;28;20030;-82
2021/03/12 01:00:18;;;;;;;5.67;2.10;;;7.90;88.30;;;;;;4995105;28;20034;-83
2021/03/12 01:02:43;;;;;;;12.83;2.73;;;7.80;88.90;;;;;;4995007;28;20034;-82
2021/03/12 01:05:09;;;;;;;10.23;2.53;;;7.80;88.90;;;;;;4993753;28;20096;-83
2021/03/12 01:07:35;;;;;;;8.60;1.97;;;7.90;89.00;;;;;;4994636;28;20495;-82
2021/03/12 01:10:01;;;;;;;8.20;2.37;;;7.80;88.80;;;;;;4994665;28;20086;-83
2021/03/12 01:12:27;;;;;;;13.43;2.67;;;7.80;88.90;;;;;;4994868;28;20030;-83
2021/03/12 01:14:52;;;;;;;10.10;3.13;;;7.90;89.30;;;;;;4993957;28;20034;-82
2021/03/12 01:17:18;;;;;;;9.40;2.77;;;7.80;88.80;;;;;;4995171;28;20025;-83
2021/03/12 01:19:43;;;;;;;9.13;2.43;;;7.80;89.00;;;;;;4994811;28;20062;-83
2021/03/12 01:22:09;;;;;;;9.90;2.47;;;7.70;88.90;;;;;;4994242;28;20026;-82
2021/03/12 01:24:35;;;;;;;11.83;2.60;;;7.70;89.40;;;;;;4994875;28;20026;-82
2021/03/12 01:27:00;;;;;;;8.53;2.30;;;7.70;89.30;;;;;;4994497;28;20080;-82
2021/03/12 01:29:27;;;;;;;7.23;2.17;;;7.70;89.80;;;;;;4994259;28;20052;-82
2021/03/12 01:31:52;;;;;;;10.70;3.03;;;7.60;90.30;;;;;;4994151;28;20041;-83
2021/03/12 01:34:19;;;;;;;15.07;2.83;;;7.60;89.80;;;;;;4993072;28;20030;-81
2021/03/12 01:36:44;;;;;;;12.77;2.87;;;7.60;90.10;;;;;;4992690;28;20336;-83
2021/03/12 01:39:10;;;;;;;14.13;2.77;;;7.60;90.00;;;;;;4994108;28;20022;-82
2021/03/12 01:41:35;;;;;;;11.63;2.93;;;7.60;90.40;;;;;;4992275;28;20018;-82
2021/03/12 01:44:02;;;;;;;10.70;3.23;;;7.60;90.00;;;;;;4994353;28;20027;-82
2021/03/12 01:46:28;;;;;;;12.93;3.00;;;7.60;90.00;;;;;;4994018;28;20605;-82
2021/03/12 01:48:53;;;;;;;11.30;3.10;;;7.70;89.90;;;;;;4993911;28;20133;-83
2021/03/12 01:51:19;;;;;;;8.00;2.60;;;7.70;89.50;;;;;;4993728;28;20034;-82
2021/03/12 01:53:45;;;;;;;9.93;2.70;;;7.70;89.40;;;;;;4993262;28;20026;-83
2021/03/12 01:56:11;;;;;;;8.60;2.50;;;7.70;89.10;;;;;;4992570;28;20324;-82
2021/03/12 01:58:36;;;;;;;7.93;3.20;;;7.70;89.10;;;;;;4993557;28;20061;-83
2021/03/12 02:01:03;;;;;;;8.47;2.67;;;7.70;89.00;;;;;;4992195;28;20034;-82
2021/03/12 02:03:30;;;;;;;8.67;2.50;;;7.60;89.40;;;;;;4993446;28;20035;-83
2021/03/12 02:05:56;;;;;;;8.17;2.43;;;7.70;89.50;;;;;;4993546;28;20037;-82
2021/03/12 02:08:22;;;;;;;12.63;3.03;;;7.60;88.70;;;;;;4991571;28;20034;-82
2021/03/12 02:10:49;;;;;;;10.33;2.63;;;7.70;89.20;;;;;;4993435;28;20057;-83
2021/03/12 02:13:27;;;;;;;9.47;2.60;;;7.70;88.70;;;;;;4992965;28;20030;-82
2021/03/12 02:16:29;;;;;;;10.00;2.70;;;7.70;87.10;;;;;;4993692;28;20080;-83
2021/03/12 02:19:02;;;;;;;8.90;2.70;;;7.60;87.30;;;;;;4971936;28;20108;-82
2021/03/12 02:21:38;;;;;;;10.53;3.03;;;7.70;87.40;;;;;;4992206;28;20117;-82
2021/03/12 02:24:45;;;;;;;9.30;2.80;;;7.60;86.20;;;;;;4995193;28;20113;-84
2021/03/12 02:27:13;;;;;;;12.07;2.90;;;7.60;86.10;;;;;;4975229;28;20134;-83
2021/03/12 02:29:44;;;;;;;12.23;3.30;;;7.70;86.10;;;;;;4995070;28;20041;-84
2021/03/12 02:32:13;;;;;;;10.23;2.80;;;7.60;86.00;;;;;;4993357;28;20108;-84
2021/03/12 02:34:40;;;;;;;10.02;2.67;;;7.60;86.70;;;;;;4995431;28;20442;-84
2021/03/12 02:37:07;;;;;;;14.33;4.70;;;7.60;86.20;;;;;;4994864;28;20030;-84
2021/03/12 02:39:36;;;;;;;8.37;3.60;;;7.60;85.70;;;;;;4992540;28;20023;-83
2021/03/12 02:42:04;;;;;;;14.68;4.28;;;7.60;85.60;;;;;;4991057;28;20045;-82
2021/03/12 02:44:32;;;;;;;10.93;3.30;;;7.60;85.30;;;;;;4992493;28;20042;-82
2021/03/12 02:47:09;;;;;;;13.30;3.30;;;7.60;85.60;;;;;;4992818;28;20176;-82
2021/03/12 02:49:35;;;;;;;8.47;2.53;;;7.60;85.00;;;;;;4992180;28;20108;-82
2021/03/12 02:52:01;;;;;;;8.83;3.20;;;7.50;84.50;;;;;;4991882;28;20026;-82
2021/03/12 02:54:27;;;;;;;8.83;2.83;;;7.50;84.50;;;;;;4992223;28;20034;-82
2021/03/12 02:56:53;;;;;;;7.20;2.50;;;7.50;84.60;;;;;;4992434;28;20026;-86
2021/03/12 02:59:19;;;;;;;8.40;2.17;;;7.60;84.50;;;;;;4989022;28;20375;-86
2021/03/12 03:01:51;;;;;;;9.77;2.33;;;7.60;84.00;;;;;;4982641;28;20622;-87
2021/03/12 03:04:18;;;;;;;14.03;3.37;;;7.60;84.00;;;;;;4973404;28;20085;-82
2021/03/12 03:06:44;;;;;;;9.77;2.60;;;7.50;84.00;;;;;;4972688;28;20814;-82
2021/03/12 03:09:11;;;;;;;10.37;2.40;;;7.50;83.90;;;;;;4972320;28;20027;-82
2021/03/12 03:11:38;;;;;;;8.23;1.87;;;7.50;84.00;;;;;;4972773;28;20425;-82
2021/03/12 03:14:05;;;;;;;8.93;2.23;;;7.60;83.90;;;;;;4973340;28;20277;-83
2021/03/12 03:16:36;;;;;;;7.57;2.00;;;7.50;83.70;;;;;;4973108;28;20456;-82
2021/03/12 03:19:03;;;;;;;11.07;2.43;;;7.50;83.80;;;;;;4972640;28;20419;-82
2021/03/12 03:21:30;;;;;;;9.63;2.17;;;7.50;83.80;;;;;;4972893;28;20067;-82
2021/03/12 03:23:55;;;;;;;9.07;2.30;;;7.50;84.30;;;;;;4972714;28;20034;-82
2021/03/12 03:26:21;;;;;;;10.47;2.10;;;7.50;84.00;;;;;;4971962;28;20361;-82
2021/03/12 03:28:49;;;;;;;11.27;2.20;;;7.40;84.30;;;;;;4971644;28;20110;-83
2021/03/12 03:31:15;;;;;;;13.43;2.40;;;7.50;84.50;;;;;;4972644;28;20023;-83
2021/03/12 03:33:41;;;;;;;10.47;2.40;;;7.50;84.20;;;;;;4991178;28;20026;-83
2021/03/12 03:36:07;;;;;;;9.27;2.13;;;7.60;84.00;;;;;;4992090;28;20475;-83
2021/03/12 03:38:33;;;;;;;8.80;2.10;;;7.50;84.20;;;;;;4991753;28;20022;-82
2021/03/12 03:41:06;;;;;;;11.17;2.63;;;7.50;84.30;;;;;;4990025;28;20073;-82
2021/03/12 03:43:36;;;;;;;10.47;2.13;;;7.50;84.40;;;;;;4991229;28;20031;-80
2021/03/12 03:46:06;;;;;;;12.80;2.30;;;7.50;84.00;;;;;;4991952;28;20041;-82
2021/03/12 03:48:34;;;;;;;17.83;2.87;;;7.50;84.30;;;;;;4991232;28;20093;-81
2021/03/12 03:51:01;;;;;;;12.33;2.47;;;7.40;84.00;;;;;;4991159;28;20034;-82
2021/03/12 03:53:28;;;;;;;10.03;2.60;;;7.40;84.20;;;;;;4988783;28;20030;-82
2021/03/12 03:55:57;;;;;;;10.00;2.20;;;7.40;84.30;;;;;;4991686;28;20383;-82
2021/03/12 03:58:25;;;;;;;8.95;1.90;;;7.40;84.00;;;;;;4991553;28;20066;-83
2021/03/12 04:00:51;;;;;;;10.60;2.43;;;7.40;84.10;;;;;;4991063;28;20030;-82
2021/03/12 04:03:17;;;;;;;9.77;2.83;;;7.40;84.10;;;;;;4989681;28;20027;-82
2021/03/12 04:05:43;;;;;;;11.57;2.83;;;7.40;83.30;;;;;;4995315;28;20432;-82
2021/03/12 04:08:10;;;;;;;11.57;2.43;;;7.40;82.20;;;;;;4995631;28;20311;-81
2021/03/12 04:10:36;;;;;;;11.67;2.87;;;7.30;81.80;;;;;;4994464;28;20033;-85
2021/03/12 04:13:03;;;;;;;12.93;2.80;;;7.40;82.00;;;;;;4994299;28;20072;-82
2021/03/12 04:15:29;;;;;;;12.30;3.07;;;7.40;82.50;;;;;;4995961;28;20407;-83
2021/03/12 04:17:56;;;;;;;9.43;2.40;;;7.40;82.80;;;;;;4994238;28;20026;-81
2021/03/12 04:20:22;;;;;;;10.30;2.90;;;7.40;83.20;;;;;;4995453;28;20034;-82
2021/03/12 04:22:49;;;;;;;7.60;2.30;;;7.30;83.70;;;;;;4995404;28;20121;-83
2021/03/12 04:25:16;;;;;;;7.57;2.37;;;7.30;83.90;;;;;;4994571;28;20081;-82
2021/03/12 04:27:42;;;;;;;13.87;2.67;;;7.40;83.90;;;;;;4993810;28;20026;-83
2021/03/12 04:30:08;;;;;;;12.50;3.00;;;7.40;84.30;;;;;;4993755;28;20064;-82
2021/03/12 04:32:37;;;;;;;10.17;2.60;;;7.40;84.40;;;;;;4995734;28;20542;-82
2021/03/12 04:35:06;;;;;;;11.13;2.65;;;7.30;84.50;;;;;;4995527;28;20034;-82
2021/03/12 04:37:31;;;;;;;15.40;2.80;;;7.30;84.60;;;;;;4994774;28;20023;-83
2021/03/12 04:39:58;;;;;;;13.93;2.97;;;7.30;84.20;;;;;;4994817;28;20057;-82
2021/03/12 04:42:24;;;;;;;12.90;2.90;;;7.40;84.60;;;;;;4993223;28;20042;-82
2021/03/12 04:44:50;;;;;;;12.63;3.20;;;7.40;84.80;;;;;;4995259;28;20077;-82
2021/03/12 04:47:19;;;;;;;8.67;2.50;;;7.30;84.40;;;;;;4994907;28;20050;-82
2021/03/12 04:49:46;;;;;;;7.53;2.17;;;7.40;84.60;;;;;;4996242;28;20022;-82
2021/03/12 04:52:13;;;;;;;8.73;2.37;;;7.30;84.10;;;;;;4995837;28;20027;-82
2021/03/12 04:54:39;;;;;;;9.10;2.30;;;7.30;84.30;;;;;;4992389;28;20043;-82
2021/03/12 04:57:06;;;;;;;12.37;2.63;;;7.20;84.10;;;;;;4994857;28;20019;-82
2021/03/12 04:59:33;;;;;;;15.70;2.67;;;7.30;84.40;;;;;;4994624;28;20038;-83
2021/03/12 05:01:59;;;;;;;10.47;2.57;;;7.30;84.10;;;;;;4993128;28;20031;-82
2021/03/12 05:04:25;;;;;;;10.17;2.60;;;7.30;84.10;;;;;;4995176;28;20483;-83
2021/03/12 05:06:52;;;;;;;7.53;2.30;;;7.30;84.00;;;;;;4994601;28;20097;-83
2021/03/12 05:09:17;;;;;;;9.83;2.10;;;7.20;83.50;;;;;;4994697;28;20037;-82
2021/03/12 05:11:44;;;;;;;11.03;1.97;;;7.20;84.20;;;;;;4995083;28;20442;-82
2021/03/12 05:14:14;;;;;;;13.63;2.30;;;7.20;84.40;;;;;;4994699;28;20495;-82
2021/03/12 05:16:40;;;;;;;10.87;1.77;;;7.10;84.50;;;;;;4993848;28;20546;-82
2021/03/12 05:19:06;;;;;;;9.13;2.13;;;7.10;84.50;;;;;;4993353;28;20162;-82
2021/03/12 05:22:00;;;;;;;15.47;2.53;;;7.10;84.70;;;;;;4993278;28;20518;-88
2021/03/12 05:24:26;;;;;;;10.20;1.80;;;7.20;84.90;;;;;;4994768;28;20038;-86
2021/03/12 05:26:53;;;;;;;9.33;1.70;;;7.10;84.50;;;;;;4993814;28;20034;-82
2021/03/12 05:29:19;;;;;;;10.60;1.57;;;7.10;84.90;;;;;;4994135;28;20026;-84
2021/03/12 05:31:44;;;;;;;11.27;1.77;;;7.10;84.80;;;;;;4994881;28;20092;-82
2021/03/12 05:34:10;;;;;;;15.60;2.23;;;7.00;85.10;;;;;;4995415;28;20022;-82
2021/03/12 05:36:39;;;;;;;9.77;1.73;;;7.10;84.90;;;;;;4994702;28;20077;-82
2021/03/12 05:39:07;;;;;;;14.48;2.22;;;7.00;85.00;;;;;;4991943;28;20407;-86
2021/03/12 05:41:37;;;;;;;11.98;1.70;;;7.10;84.80;;;;;;4990484;28;20487;-84
2021/03/12 05:44:04;;;;;;;8.32;1.58;;;7.00;85.40;;;;;;4995588;28;20030;-82
2021/03/12 05:46:31;;;;;;;14.00;2.20;;;7.00;84.90;;;;;;4992016;28;20037;-85
2021/03/12 05:48:58;;;;;;;10.93;2.13;;;7.10;84.80;;;;;;4994087;28;20030;-85
2021/03/12 05:51:24;;;;;;;9.03;1.60;;;7.10;84.80;;;;;;4991349;28;20507;-86
2021/03/12 05:53:50;;;;;;;7.87;1.63;;;7.10;84.90;;;;;;4993143;28;20049;-85
2021/03/12 05:56:16;;;;;;;11.87;2.10;;;7.10;84.70;;;;;;4992512;28;20023;-86
2021/03/12 05:58:42;;;;;;;21.43;2.40;;;7.10;84.70;;;;;;4992583;28;20092;-84
2021/03/12 06:01:08;;;;;;;10.70;1.73;;;7.20;84.90;;;;;;4995860;28;20018;-84
2021/03/12 06:03:34;;;;;;;11.03;1.67;;;7.10;84.60;;;;;;4994518;28;20029;-83
2021/03/12 06:05:59;;;;;;;12.17;2.33;;;7.10;84.80;;;;;;4992179;28;20022;-85
2021/03/12 06:08:35;;;;;;;14.30;2.43;;;7.10;84.40;;;;;;4993148;28;20479;-87
2021/03/12 06:11:03;;;;;;;13.97;2.57;;;7.00;84.70;;;;;;4993506;28;20034;-86
2021/03/12 06:13:29;;;;;;;10.50;2.73;;;7.10;84.90;;;;;;4991706;28;20434;-87
2021/03/12 06:15:55;;;;;;;13.13;2.60;;;7.10;84.70;;;;;;4991756;28;20438;-87
2021/03/12 06:18:25;;;;;;;10.03;3.10;;;7.20;84.60;;;;;;4991637;28;20022;-87
2021/03/12 06:20:54;;;;;;;;;;;7.20;84.40;;;;;;4992130;28;20022;-87
2021/03/12 06:23:31;;;;;;;10.07;1.80;;;7.30;84.40;;;;;;5023769;28;20243;-87
2021/03/12 06:25:57;;;;;;;10.33;2.30;;;7.30;84.40;;;;;;4992847;28;20022;-87
2021/03/12 06:28:23;;;;;;;14.07;2.07;;;7.40;84.20;;;;;;4992608;28;20033;-87
2021/03/12 06:30:49;;;;;;;12.53;2.40;;;7.40;84.00;;;;;;4992461;28;20085;-87
2021/03/12 06:33:29;;;;;;;12.23;2.87;;;7.40;83.90;;;;;;4991149;28;20022;-87
2021/03/12 06:35:56;;;;;;;12.90;2.23;;;7.50;83.40;;;;;;4992594;28;20084;-87
2021/03/12 06:38:22;;;;;;;8.27;1.60;;;7.50;84.10;;;;;;4990960;28;20037;-87
2021/03/12 06:40:48;;;;;;;13.77;2.03;;;7.50;83.30;;;;;;4991057;28;20553;-85
2021/03/12 06:43:18;;;;;;;9.03;2.00;;;7.50;84.10;;;;;;4991307;28;20030;-87
2021/03/12 06:45:50;;;;;;;11.53;1.93;;;7.70;87.40;;;;;;4988339;28;20026;-87
2021/03/12 06:48:26;;;;;;;15.20;2.10;;;7.90;88.70;;;;;;4971103;28;20045;-87
2021/03/12 06:50:53;;;;;;;15.17;2.30;;;8.00;86.90;;;;;;4971664;28;20353;-87
2021/03/12 06:53:29;;;;;;;23.47;5.30;;;8.20;85.20;;;;;;4970200;28;20054;-85
2021/03/12 06:55:57;;;;;;;16.47;2.93;;;8.00;83.70;;;;;;4971454;28;20019;-86
2021/03/12 06:58:23;;;;;;;19.50;4.73;;;7.80;84.60;;;;;;4973208;28;20034;-86
2021/03/12 07:00:49;;;;;;;16.60;3.40;;;7.70;85.10;;;;;;4971781;28;20039;-85
2021/03/12 07:03:21;;;;;;;17.20;3.50;;;7.60;85.50;;;;;;4971979;28;20033;-87
2021/03/12 07:05:59;;;;;;;18.43;3.73;;;7.50;87.20;;;;;;4971853;28;20361;-87
2021/03/12 07:08:37;;;;;;;21.10;3.42;;;7.50;88.40;;;;;;4971149;28;20109;-85
2021/03/12 07:11:21;;;;;;;18.53;3.47;;;7.50;88.30;;;;;;4972534;28;20412;-85
2021/03/12 07:13:48;;;;;;;18.97;3.03;;;7.50;89.10;;;;;;4971071;28;20045;-81
2021/03/12 07:16:14;;;;;;;14.80;3.13;;;7.50;90.10;;;;;;4973038;28;20098;-81
2021/03/12 07:18:41;;;;;;;19.27;3.00;;;7.60;90.60;;;;;;4972983;28;20061;-81
2021/03/12 07:21:07;;;;;;;13.10;2.40;;;7.70;90.10;;;;;;4971402;28;20023;-81
2021/03/12 07:23:49;;;;;;;15.07;2.97;;;7.70;89.10;;;;;;4972410;28;20019;-87
2021/03/12 07:26:16;;;;;;;19.87;3.10;;;7.70;90.00;;;;;;4972438;28;20381;-87
2021/03/12 07:28:44;;;;;;;19.57;3.03;;;7.80;88.50;;;;;;4970843;28;20019;-87
2021/03/12 07:31:11;;;;;;;15.67;3.70;;;7.80;88.50;;;;;;4970751;28;20101;-82
2021/03/12 07:33:39;;;;;;;19.03;3.47;;;7.70;88.00;;;;;;4973815;28;20028;-83
2021/03/12 07:36:07;;;;;;;12.00;2.60;;;7.80;88.10;;;;;;4993871;28;20203;-84
2021/03/12 07:38:35;;;;;;;20.83;3.57;;;7.70;87.80;;;;;;4993572;28;20486;-83
2021/03/12 07:41:05;;;;;;;14.07;2.80;;;7.80;87.70;;;;;;4991654;28;20106;-83
2021/03/12 07:43:37;;;;;;;16.00;3.13;;;7.70;87.30;;;;;;4990700;28;20416;-83
2021/03/12 07:46:03;;;;;;;18.23;3.93;;;7.70;88.30;;;;;;4990860;28;20024;-83
2021/03/12 07:48:31;;;;;;;23.70;4.37;;;7.80;87.80;;;;;;4993210;28;20080;-90
2021/03/12 07:51:10;;;;;;;18.63;3.93;;;7.70;86.50;;;;;;4990632;28;20436;-83
2021/03/12 07:53:47;;;;;;;16.30;4.15;;;7.70;86.80;;;;;;4991896;28;20030;-84
2021/03/12 07:56:14;;;;;;;20.57;3.90;;;7.70;87.40;;;;;;4993473;28;20425;-84
2021/03/12 07:58:53;;;;;;;19.67;4.27;;;7.70;87.10;;;;;;4992269;28;20058;-88
2021/03/12 08:01:20;;;;;;;25.25;4.88;;;7.70;87.40;;;;;;4990785;28;20121;-87
2021/03/12 08:03:49;;;;;;;15.20;4.00;;;7.60;87.90;;;;;;4992693;28;20027;-83
2021/03/12 08:06:17;;;;;;;17.13;3.83;;;7.60;87.70;;;;;;4993169;28;20026;-84
2021/03/12 08:08:45;;;;;;;21.90;4.05;;;7.60;87.70;;;;;;4994568;28;20037;-84
2021/03/12 08:11:16;;;;;;;21.80;4.00;;;7.70;87.50;;;;;;4993514;28;20130;-84
2021/03/12 08:13:42;;;;;;;15.93;4.63;;;7.70;87.40;;;;;;4992766;28;20436;-87
2021/03/12 08:16:08;;;;;;;18.13;4.10;;;7.60;87.50;;;;;;4990724;28;20046;-84
2021/03/12 08:18:33;;;;;;;14.77;3.27;;;7.60;87.30;;;;;;4991643;28;20094;-85
2021/03/12 08:20:59;;;;;;;15.37;3.37;;;7.70;87.70;;;;;;4992380;28;20030;-84
2021/03/12 08:23:33;;;;;;;14.20;3.40;;;7.70;87.70;;;;;;4990269;28;20027;-85
2021/03/12 08:25:59;;;;;;;20.10;4.40;;;7.80;88.00;;;;;;4990947;28;20121;-88
2021/03/12 08:28:28;;;;;;;19.03;4.40;;;7.80;87.40;;;;;;4992401;28;20112;-85
2021/03/12 08:30:58;;;;;;;20.80;3.63;;;7.80;87.30;;;;;;4989929;28;20085;-87
2021/03/12 08:33:30;;;;;;;20.93;4.10;;;7.80;87.10;;;;;;4986447;28;20079;-84
2021/03/12 08:35:57;;;;;;;22.83;5.03;;;7.90;87.30;;;;;;4989243;28;20034;-84
2021/03/12 08:38:23;;;;;;;14.30;2.93;;;7.90;89.10;;;;;;4992554;28;20018;-84
2021/03/12 08:40:54;;;;;;;21.07;4.07;;;8.00;87.30;;;;;;4989989;28;20392;-85
2021/03/12 08:43:20;;;;;;;22.80;3.60;;;7.90;86.00;;;;;;4989117;28;20377;-84
2021/03/12 08:45:57;;;;;;;20.10;3.77;;;7.90;86.60;;;;;;4989543;28;20489;-85
2021/03/12 08:48:29;;;;;;;13.70;2.83;;;8.00;86.70;;;;;;4986393;28;20031;-86
2021/03/12 08:51:02;;;;;;;18.37;3.53;;;8.00;86.70;;;;;;4990266;28;20026;-86
2021/03/12 08:53:34;;;;;;;24.27;4.63;;;8.10;86.80;;;;;;4992058;28;20148;-84
2021/03/12 08:56:02;;;;;;;21.53;3.70;;;8.00;86.80;;;;;;4990671;28;20026;-86
2021/03/12 08:58:38;;;;;;;18.95;3.42;;;8.00;87.10;;;;;;4987042;28;20062;-84
2021/03/12 09:01:22;;;;;;;16.17;3.23;;;8.00;86.30;;;;;;4989965;28;20030;-83
2021/03/12 09:03:52;;;;;;;14.57;3.10;;;8.00;87.30;;;;;;4989959;28;20026;-84
2021/03/12 09:06:24;;;;;;;19.20;3.73;;;8.10;87.50;;;;;;4991080;28;20076;-84
2021/03/12 09:08:50;;;;;;;19.63;4.10;;;8.10;87.80;;;;;;4994932;28;20052;-85
2021/03/12 09:11:21;;;;;;;22.17;4.57;;;8.10;87.50;;;;;;4994479;28;20062;-84
2021/03/12 09:13:49;;;;;;;22.17;4.63;;;8.10;87.00;;;;;;4996162;28;20050;-84
2021/03/12 09:16:23;;;;;;;20.70;4.77;;;8.20;87.70;;;;;;4996196;28;20023;-85
2021/03/12 09:18:50;;;;;;;16.10;3.63;;;8.20;86.30;;;;;;4996364;28;20046;-84
2021/03/12 09:21:18;;;;;;;25.13;5.00;;;8.20;86.40;;;;;;4981706;28;20027;-85
2021/03/12 09:23:55;;;;;;;17.83;4.07;;;8.20;87.00;;;;;;4990003;28;20120;-83
2021/03/12 09:26:23;;;;;;;19.10;4.10;;;8.30;86.70;;;;;;5012587;28;20038;-83
2021/03/12 09:28:52;;;;;;;19.38;4.30;;;8.30;85.90;;;;;;5012550;28;20101;-82
2021/03/12 09:31:19;;;;;;;16.90;3.63;;;8.30;85.90;;;;;;5013719;28;20446;-83
2021/03/12 09:33:52;;;;;;;20.47;3.73;;;8.40;91.60;;;;;;5014291;28;20018;-83
2021/03/12 09:36:26;;;;;;;17.83;3.80;;;8.80;87.70;;;;;;5013060;28;20029;-83
2021/03/12 09:38:54;;;;;;;23.83;3.33;;;8.90;86.10;;;;;;5013748;28;20561;-82
2021/03/12 09:41:26;;;;;;;23.33;4.03;;;8.90;83.10;;;;;;5013763;28;20047;-82
2021/03/12 09:44:15;;;;;;;26.00;5.10;;;8.70;82.50;;;;;;5014084;28;20049;-84
2021/03/12 09:46:45;;;;;;;22.33;4.45;;;8.50;83.10;;;;;;5013834;28;20022;-81
2021/03/12 09:49:19;;;;;;;19.23;3.90;;;8.50;83.50;;;;;;5013979;28;20447;-82
2021/03/12 09:51:47;;;;;;;18.30;4.47;;;8.50;83.70;;;;;;5014277;28;20022;-83
2021/03/12 09:54:15;;;;;;;24.20;3.83;;;8.60;83.90;;;;;;5014988;28;20060;-82
2021/03/12 09:56:51;;;;;;;22.90;4.40;;;8.70;83.20;;;;;;5013591;28;20026;-87
2021/03/12 09:59:32;;;;;;;21.83;6.67;;;8.70;82.00;;;;;;5012775;28;20037;-87
2021/03/12 10:02:11;;;;;;;20.17;4.20;;;8.70;82.00;;;;;;5013000;28;20121;-84
2021/03/12 10:04:40;;;;;;;21.60;4.93;;;9.00;91.00;;;;;;5012965;28;20080;-84
2021/03/12 10:07:10;;;;;;;15.52;4.05;;;10.10;90.00;;;;;;5010926;28;20029;-82
2021/03/12 10:09:41;;;;;;;22.30;5.27;;;9.70;77.30;;;;;;5012510;28;20022;-83
2021/03/12 10:12:18;;;;;;;17.77;3.37;;;9.40;78.90;;;;;;5013637;28;20087;-83
2021/03/12 10:14:46;;;;;;;18.07;2.67;;;9.30;78.90;;;;;;5011603;28;20076;-82
2021/03/12 10:17:16;;;;;;;20.73;2.97;;;9.10;79.10;;;;;;5011457;28;20456;-82
2021/03/12 10:19:51;;;;;;;20.83;3.63;;;9.00;79.60;;;;;;5011418;28;20030;-81
2021/03/12 10:22:37;;;;;;;17.73;3.10;;;9.00;80.20;;;;;;5012707;28;20125;-82
2021/03/12 10:25:15;;;;;;;20.00;2.87;;;8.90;80.60;;;;;;5011234;28;20387;-82
2021/03/12 10:27:49;;;;;;;20.93;3.13;;;8.90;80.40;;;;;;5012776;28;20402;-81
2021/03/12 10:30:24;;;;;;;15.57;2.70;;;8.90;80.10;;;;;;5011988;28;20387;-81
2021/03/12 10:32:52;;;;;;;16.33;3.60;;;8.90;80.40;;;;;;5012453;28;20021;-82
2021/03/12 10:35:29;;;;;;;17.45;2.80;;;8.90;80.20;;;;;;5010646;28;20022;-82
2021/03/12 10:37:58;;;;;;;16.63;3.67;;;8.90;80.30;;;;;;5012219;28;20099;-81
2021/03/12 10:40:25;;;;;;;15.20;3.20;;;8.90;80.00;;;;;;5010640;28;20032;-81
2021/03/12 10:42:51;;;;;;;21.53;3.73;;;8.90;78.70;;;;;;5009389;28;20029;-82
2021/03/12 10:45:29;;;;;;;21.07;3.67;;;9.00;78.80;;;;;;4993184;28;20049;-80
2021/03/12 10:48:05;;;;;;;24.00;3.77;;;9.00;78.40;;;;;;4993377;28;20168;-84
2021/03/12 10:50:36;;;;;;;24.30;3.07;;;9.00;78.60;;;;;;4991217;28;20060;-81
2021/03/12 10:53:13;;;;;;;17.00;2.40;;;8.90;78.40;;;;;;4992538;28;20053;-82
2021/03/12 10:55:45;;;;;;;18.23;3.00;;;8.90;79.20;;;;;;4993853;28;20030;-82
2021/03/12 10:58:31;;;;;;;13.77;2.10;;;8.90;78.60;;;;;;4993638;28;20041;-83
2021/03/12 11:01:06;;;;;;;13.80;2.57;;;8.90;79.00;;;;;;4992419;28;20152;-82
2021/03/12 11:03:31;;;;;;;11.53;2.40;;;8.90;78.90;;;;;;4995203;28;20104;-83
2021/03/12 11:05:57;;;;;;;17.87;2.63;;;8.90;78.60;;;;;;4989960;28;20630;-81
2021/03/12 11:08:25;;;;;;;14.73;2.53;;;8.90;78.90;;;;;;5000444;28;20073;-83
2021/03/12 11:10:51;;;;;;;16.93;2.70;;;8.90;77.00;;;;;;4989939;28;20026;-83
2021/03/12 11:13:17;;;;;;;18.57;3.17;;;8.90;78.20;;;;;;4990983;28;20027;-84
2021/03/12 11:15:43;;;;;;;17.37;2.67;;;8.90;77.10;;;;;;4990624;28;20459;-82
2021/03/12 11:18:09;;;;;;;17.03;2.20;;;9.00;77.90;;;;;;4997121;28;20029;-84
2021/03/12 11:20:34;;;;;;;18.00;2.83;;;9.10;77.10;;;;;;5002364;28;20038;-84
2021/03/12 11:23:00;;;;;;;15.70;2.33;;;9.10;77.20;;;;;;5013492;28;20065;-83
2021/03/12 11:25:26;;;;;;;13.20;2.10;;;9.10;76.70;;;;;;5012043;28;20407;-82
2021/03/12 11:27:52;;;;;;;11.47;2.10;;;9.10;76.90;;;;;;5014320;28;20117;-83
2021/03/12 11:30:20;;;;;;;13.37;2.43;;;9.20;76.70;;;;;;5012199;28;20112;-87
2021/03/12 11:32:47;;;;;;;13.60;2.87;;;9.20;76.50;;;;;;5012021;28;20026;-83
2021/03/12 11:35:17;;;;;;;16.37;2.40;;;9.20;76.10;;;;;;5011654;28;20022;-82
2021/03/12 11:37:43;;;;;;;19.00;2.80;;;9.20;76.20;;;;;;5011114;28;20499;-84
2021/03/12 11:40:12;;;;;;;12.30;2.20;;;9.20;75.80;;;;;;5010991;28;20038;-81
2021/03/12 11:42:41;;;;;;;16.27;2.70;;;9.20;75.10;;;;;;5013680;28;20033;-86
2021/03/12 11:45:09;;;;;;;21.38;2.90;;;9.20;75.70;;;;;;5012066;28;20116;-82
2021/03/12 11:47:35;;;;;;;14.50;2.47;;;9.20;75.20;;;;;;5013793;28;20046;-82
2021/03/12 11:50:03;;;;;;;14.47;2.87;;;9.20;75.10;;;;;;5010979;28;20022;-84
2021/03/12 11:52:28;;;;;;;12.63;2.10;;;9.30;74.60;;;;;;5011789;28;20461;-82
2021/03/12 11:54:55;;;;;;;15.33;2.50;;;9.30;73.80;;;;;;5013871;28;20029;-83
2021/03/12 11:57:22;;;;;;;12.13;2.23;;;9.30;73.80;;;;;;5014702;28;20025;-81
2021/03/12 11:59:48;;;;;;;15.43;1.97;;;9.30;73.60;;;;;;5011505;28;20493;-82
2021/03/12 12:02:15;;;;;;;11.13;2.13;;;9.30;74.10;;;;;;5012388;28;20088;-82
2021/03/12 12:04:42;;;;;;;10.47;1.73;;;9.30;74.40;;;;;;5011827;28;20034;-82
2021/03/12 12:07:09;;;;;;;12.17;1.97;;;9.30;74.70;;;;;;5009461;28;20029;-82
2021/03/12 12:09:34;;;;;;;10.73;2.20;;;9.40;73.40;;;;;;5005250;28;20113;-82
2021/03/12 12:12:01;;;;;;;12.03;2.00;;;9.40;73.50;;;;;;4993598;28;20053;-82
2021/03/12 12:14:26;;;;;;;13.30;2.10;;;9.40;72.70;;;;;;4993701;28;20053;-82
2021/03/12 12:16:52;;;;;;;16.47;2.87;;;9.40;73.00;;;;;;4993618;28;20026;-82
2021/03/12 12:19:19;;;;;;;12.40;2.83;;;9.40;73.00;;;;;;4992206;28;20027;-83
2021/03/12 12:21:45;;;;;;;11.63;2.13;;;9.30;73.00;;;;;;4993153;28;20029;-85
2021/03/12 12:24:11;;;;;;;14.80;2.23;;;9.40;73.00;;;;;;4993895;28;20121;-84
2021/03/12 12:26:39;;;;;;;14.83;2.57;;;9.40;72.80;;;;;;4997821;28;20054;-84
2021/03/12 12:29:05;;;;;;;13.73;2.13;;;9.40;73.00;;;;;;5000985;28;20030;-85
2021/03/12 12:31:34;;;;;;;11.07;2.03;;;9.40;73.30;;;;;;4998713;28;20502;-83
2021/03/12 12:34:00;;;;;;;12.73;2.30;;;9.40;74.50;;;;;;4996808;28;20030;-84
2021/03/12 12:36:27;;;;;;;16.50;3.27;;;9.30;73.30;;;;;;4994767;28;20060;-81
2021/03/12 12:38:54;;;;;;;12.90;1.90;;;9.40;74.10;;;;;;4996660;28;20019;-83
2021/03/12 12:41:20;;;;;;;9.27;1.90;;;9.40;74.50;;;;;;4997874;28;20032;-82
2021/03/12 12:43:47;;;;;;;16.87;1.93;;;9.40;75.60;;;;;;5010240;28;20066;-81
2021/03/12 12:46:12;;;;;;;15.87;2.17;;;9.30;75.30;;;;;;5014256;28;20356;-82
2021/03/12 12:48:38;;;;;;;13.17;2.07;;;9.40;75.80;;;;;;5015003;28;20105;-82
2021/03/12 12:51:04;;;;;;;14.83;1.90;;;9.50;75.90;;;;;;5013368;28;20128;-82
2021/03/12 12:53:30;;;;;;;10.40;2.20;;;9.50;75.60;;;;;;5014728;28;20506;-83
2021/03/12 12:55:56;;;;;;;16.20;2.43;;;9.60;75.40;;;;;;5013334;28;20026;-81
2021/03/12 12:58:21;;;;;;;14.33;2.93;;;9.60;75.00;;;;;;5013326;28;20052;-83